RJNK(METAR)
08/13 03:00
METAR RJNK 121800Z 27007KT 230V290 9999 FEW030 BKN070 27/24 Q1005 RMK
1CU030 6AC070 A2970=
戻る
トップページへ戻る
IMOC Co,.Ltd.